sensor_id;sensor_type;location;lat;lon;timestamp;temperature;humidity
63407;SHT31;49543;45.892;10.838;2024-02-26T16:55:18;8.09;98.30
63407;SHT31;49543;45.892;10.838;2024-02-26T16:57:44;8.08;98.28
63407;SHT31;49543;45.892;10.838;2024-02-26T17:00:10;8.09;98.34
63407;SHT31;49543;45.892;10.838;2024-02-26T17:02:38;8.14;98.34
63407;SHT31;49543;45.892;10.838;2024-02-26T17:05:03;8.09;98.26
63407;SHT31;49543;45.892;10.838;2024-02-26T17:07:29;8.09;98.32
63407;SHT31;49543;45.892;10.838;2024-02-26T17:09:54;8.07;98.31
63407;SHT31;49543;45.892;10.838;2024-02-26T17:12:20;8.04;98.29
63407;SHT31;49543;45.892;10.838;2024-02-26T17:14:47;8.01;98.35
63407;SHT31;49543;45.892;10.838;2024-02-26T17:17:15;8.01;98.45
63407;SHT31;49543;45.892;10.838;2024-02-26T17:19:41;8.01;98.50
63407;SHT31;49543;45.892;10.838;2024-02-26T17:22:06;8.01;98.53
63407;SHT31;49543;45.892;10.838;2024-02-26T17:24:34;7.99;98.57
63407;SHT31;49543;45.892;10.838;2024-02-26T17:27:01;7.98;98.61
63407;SHT31;49543;45.892;10.838;2024-02-26T17:29:26;8.01;98.65
63407;SHT31;49543;45.892;10.838;2024-02-26T17:31:52;7.99;98.66
63407;SHT31;49543;45.892;10.838;2024-02-26T17:34:18;8.01;98.64
63407;SHT31;49543;45.892;10.838;2024-02-26T17:36:44;8.01;98.64
63407;SHT31;49543;45.892;10.838;2024-02-26T17:39:10;7.99;98.61
63407;SHT31;49543;45.892;10.838;2024-02-26T17:41:36;7.99;98.62
63407;SHT31;49543;45.892;10.838;2024-02-26T17:44:01;7.99;98.75
63407;SHT31;49543;45.892;10.838;2024-02-26T17:46:27;7.99;98.75
63407;SHT31;49543;45.892;10.838;2024-02-26T17:48:53;8.01;98.71
63407;SHT31;49543;45.892;10.838;2024-02-26T17:51:18;7.99;98.78
63407;SHT31;49543;45.892;10.838;2024-02-26T17:53:44;7.99;98.78
63407;SHT31;49543;45.892;10.838;2024-02-26T17:56:09;7.98;98.79
63407;SHT31;49543;45.892;10.838;2024-02-26T17:58:36;7.98;98.84
63407;SHT31;49543;45.892;10.838;2024-02-26T18:01:06;7.97;98.86
63407;SHT31;49543;45.892;10.838;2024-02-26T18:03:31;7.95;98.86
63407;SHT31;49543;45.892;10.838;2024-02-26T18:05:57;7.94;98.77
63407;SHT31;49543;45.892;10.838;2024-02-26T18:08:24;7.91;98.85
63407;SHT31;49543;45.892;10.838;2024-02-26T18:10:50;7.94;98.87
63407;SHT31;49543;45.892;10.838;2024-02-26T18:13:15;7.93;98.89
63407;SHT31;49543;45.892;10.838;2024-02-26T18:15:41;7.91;98.89
63407;SHT31;49543;45.892;10.838;2024-02-26T18:18:07;7.91;98.79
63407;SHT31;49543;45.892;10.838;2024-02-26T18:20:32;7.90;98.90
63407;SHT31;49543;45.892;10.838;2024-02-26T18:22:58;7.88;98.78
63407;SHT31;49543;45.892;10.838;2024-02-26T18:25:24;7.86;98.75
63407;SHT31;49543;45.892;10.838;2024-02-26T18:27:50;7.87;98.85
63407;SHT31;49543;45.892;10.838;2024-02-26T18:30:16;7.86;98.91
63407;SHT31;49543;45.892;10.838;2024-02-26T18:32:42;7.84;99.02
63407;SHT31;49543;45.892;10.838;2024-02-26T18:35:08;7.81;99.03
63407;SHT31;49543;45.892;10.838;2024-02-26T18:37:34;7.83;99.04
63407;SHT31;49543;45.892;10.838;2024-02-26T18:40:00;7.81;99.12
63407;SHT31;49543;45.892;10.838;2024-02-26T18:42:26;7.80;98.98
63407;SHT31;49543;45.892;10.838;2024-02-26T18:44:52;7.81;99.00
63407;SHT31;49543;45.892;10.838;2024-02-26T18:47:18;7.79;99.03
63407;SHT31;49543;45.892;10.838;2024-02-26T18:49:46;7.79;99.06
63407;SHT31;49543;45.892;10.838;2024-02-26T18:52:11;7.81;99.06
63407;SHT31;49543;45.892;10.838;2024-02-26T18:54:37;7.83;99.10
63407;SHT31;49543;45.892;10.838;2024-02-26T18:57:04;7.80;99.01
63407;SHT31;49543;45.892;10.838;2024-02-26T18:59:30;7.80;99.00
63407;SHT31;49543;45.892;10.838;2024-02-26T19:01:56;7.77;99.03
63407;SHT31;49543;45.892;10.838;2024-02-26T19:04:21;7.80;99.11
63407;SHT31;49543;45.892;10.838;2024-02-26T19:06:49;7.77;99.05
63407;SHT31;49543;45.892;10.838;2024-02-26T19:09:14;7.79;99.15
63407;SHT31;49543;45.892;10.838;2024-02-26T19:11:49;7.77;99.22
63407;SHT31;49543;45.892;10.838;2024-02-26T19:14:16;7.79;99.25
63407;SHT31;49543;45.892;10.838;2024-02-26T19:16:43;7.80;99.25
63407;SHT31;49543;45.892;10.838;2024-02-26T19:19:09;7.79;99.30
63407;SHT31;49543;45.892;10.838;2024-02-26T19:21:34;7.76;99.00
63407;SHT31;49543;45.892;10.838;2024-02-26T19:24:00;7.76;98.99
63407;SHT31;49543;45.892;10.838;2024-02-26T19:26:26;7.76;99.08
63407;SHT31;49543;45.892;10.838;2024-02-26T19:28:52;7.77;99.16
63407;SHT31;49543;45.892;10.838;2024-02-26T19:31:17;7.77;99.17
63407;SHT31;49543;45.892;10.838;2024-02-26T19:33:42;7.76;99.22
63407;SHT31;49543;45.892;10.838;2024-02-26T19:36:08;7.77;99.20
63407;SHT31;49543;45.892;10.838;2024-02-26T19:38:33;7.79;99.20
63407;SHT31;49543;45.892;10.838;2024-02-26T19:40:59;7.74;99.15
63407;SHT31;49543;45.892;10.838;2024-02-26T19:43:24;7.74;98.68
63407;SHT31;49543;45.892;10.838;2024-02-26T19:45:50;7.71;98.86
63407;SHT31;49543;45.892;10.838;2024-02-26T19:48:15;7.71;98.96
63407;SHT31;49543;45.892;10.838;2024-02-26T19:50:40;7.71;98.99
63407;SHT31;49543;45.892;10.838;2024-02-26T19:53:09;7.74;99.04
63407;SHT31;49543;45.892;10.838;2024-02-26T19:55:35;7.74;98.93
63407;SHT31;49543;45.892;10.838;2024-02-26T19:58:00;7.74;98.92
63407;SHT31;49543;45.892;10.838;2024-02-26T20:00:28;7.73;98.93
63407;SHT31;49543;45.892;10.838;2024-02-26T20:02:53;7.71;98.96
63407;SHT31;49543;45.892;10.838;2024-02-26T20:05:21;7.73;98.94
63407;SHT31;49543;45.892;10.838;2024-02-26T20:07:46;7.74;99.04
63407;SHT31;49543;45.892;10.838;2024-02-26T20:10:12;7.74;99.00
63407;SHT31;49543;45.892;10.838;2024-02-26T20:12:37;7.74;99.06
63407;SHT31;49543;45.892;10.838;2024-02-26T20:15:03;7.74;99.07
63407;SHT31;49543;45.892;10.838;2024-02-26T20:17:29;7.74;99.16
63407;SHT31;49543;45.892;10.838;2024-02-26T20:19:55;7.74;99.12
63407;SHT31;49543;45.892;10.838;2024-02-26T20:22:23;7.73;99.20
63407;SHT31;49543;45.892;10.838;2024-02-26T20:24:48;7.74;99.19
63407;SHT31;49543;45.892;10.838;2024-02-26T20:27:14;7.73;99.17
63407;SHT31;49543;45.892;10.838;2024-02-26T20:29:40;7.76;99.18
63407;SHT31;49543;45.892;10.838;2024-02-26T20:32:05;7.73;99.16
63407;SHT31;49543;45.892;10.838;2024-02-26T20:34:31;7.71;99.18
63407;SHT31;49543;45.892;10.838;2024-02-26T20:36:56;7.71;99.19
63407;SHT31;49543;45.892;10.838;2024-02-26T20:39:22;7.67;99.26
63407;SHT31;49543;45.892;10.838;2024-02-26T20:41:47;7.67;99.26
63407;SHT31;49543;45.892;10.838;2024-02-26T20:44:13;7.67;99.23
63407;SHT31;49543;45.892;10.838;2024-02-26T20:46:42;7.67;99.27
63407;SHT31;49543;45.892;10.838;2024-02-26T20:49:08;7.67;99.26
63407;SHT31;49543;45.892;10.838;2024-02-26T20:51:33;7.66;99.28
63407;SHT31;49543;45.892;10.838;2024-02-26T20:53:59;7.67;99.20
63407;SHT31;49543;45.892;10.838;2024-02-26T20:56:25;7.66;99.14
63407;SHT31;49543;45.892;10.838;2024-02-26T20:58:50;7.65;99.11
63407;SHT31;49543;45.892;10.838;2024-02-26T21:01:15;7.62;99.08
63407;SHT31;49543;45.892;10.838;2024-02-26T21:03:41;7.62;99.06
63407;SHT31;49543;45.892;10.838;2024-02-26T21:06:06;7.58;99.07
63407;SHT31;49543;45.892;10.838;2024-02-26T21:08:33;7.60;99.16
63407;SHT31;49543;45.892;10.838;2024-02-26T21:10:58;7.58;99.22
63407;SHT31;49543;45.892;10.838;2024-02-26T21:13:23;7.58;99.25
63407;SHT31;49543;45.892;10.838;2024-02-26T21:15:49;7.60;99.23
63407;SHT31;49543;45.892;10.838;2024-02-26T21:18:14;7.59;99.26
63407;SHT31;49543;45.892;10.838;2024-02-26T21:20:40;7.59;99.28
63407;SHT31;49543;45.892;10.838;2024-02-26T21:23:05;7.58;99.28
63407;SHT31;49543;45.892;10.838;2024-02-26T22:05:19;7.49;99.66
63407;SHT31;49543;45.892;10.838;2024-02-26T22:15:04;7.53;99.78
63407;SHT31;49543;45.892;10.838;2024-02-26T22:21:12;7.55;99.78
63407;SHT31;49543;45.892;10.838;2024-02-26T22:24:16;7.52;99.74
